createdAt,value
2022-10-02T00:01:34.506Z,14.64
2022-10-02T00:04:01.686Z,14.93
2022-10-02T00:06:35.504Z,14.82
2022-10-02T00:09:03.730Z,14.82
2022-10-02T00:11:57.799Z,14.89
2022-10-02T00:14:25.747Z,14.64
2022-10-02T00:16:56.133Z,14.87
2022-10-02T00:19:22.758Z,14.70
2022-10-02T00:21:55.199Z,14.54
2022-10-02T00:24:48.364Z,14.37
2022-10-02T00:27:50.068Z,15.06
2022-10-02T00:30:17.855Z,14.67
2022-10-02T00:32:56.969Z,15.05
2022-10-02T00:35:32.514Z,15.09
2022-10-02T00:38:06.125Z,14.98
2022-10-02T00:41:10.243Z,14.75
2022-10-02T00:43:40.237Z,14.77
2022-10-02T00:46:51.355Z,14.80
2022-10-02T00:50:02.526Z,15.32
2022-10-02T00:52:41.376Z,14.81
2022-10-02T00:55:19.722Z,14.98
2022-10-02T00:57:52.618Z,14.63
2022-10-02T01:00:19.552Z,14.89
2022-10-02T01:03:18.850Z,14.83
2022-10-02T01:05:45.458Z,14.94
2022-10-02T01:08:12.823Z,15.27
2022-10-02T01:10:39.639Z,14.59
2022-10-02T01:13:07.675Z,14.76
2022-10-02T01:15:55.378Z,14.75
2022-10-02T01:18:22.355Z,14.98
2022-10-02T01:20:50.703Z,14.63
2022-10-02T01:23:27.440Z,14.64
2022-10-02T01:25:54.097Z,14.98
2022-10-02T01:28:21.692Z,14.92
2022-10-02T01:30:51.751Z,14.75
2022-10-02T01:33:18.771Z,14.92
2022-10-02T01:35:46.129Z,15.17
2022-10-02T01:38:16.393Z,14.96
2022-10-02T01:40:42.887Z,14.83
2022-10-02T01:43:18.612Z,14.96
2022-10-02T01:46:03.990Z,15.30
2022-10-02T01:48:42.644Z,15.26
2022-10-02T01:51:09.068Z,15.57
2022-10-02T01:54:08.049Z,15.06
2022-10-02T01:56:54.357Z,15.25
2022-10-02T01:59:21.613Z,15.33
2022-10-02T02:02:06.897Z,15.23
2022-10-02T02:04:43.638Z,14.67
2022-10-02T02:07:27.067Z,15.09
2022-10-02T02:10:04.626Z,15.30
2022-10-02T02:12:47.471Z,15.18
2022-10-02T02:15:39.503Z,15.10
2022-10-02T02:18:13.623Z,15.18
2022-10-02T02:20:46.986Z,14.93
2022-10-02T02:23:19.807Z,14.86
2022-10-02T02:25:50.175Z,15.17
2022-10-02T02:28:19.755Z,14.89
2022-10-02T02:30:49.664Z,15.05
2022-10-02T02:33:26.527Z,15.14
2022-10-02T02:35:59.038Z,15.05
2022-10-02T02:38:32.814Z,15.23
2022-10-02T02:41:09.864Z,14.70
2022-10-02T02:43:45.548Z,15.04
2022-10-02T02:47:04.847Z,15.18
2022-10-02T02:49:56.664Z,15.15
2022-10-02T02:52:29.761Z,15.01
2022-10-02T02:55:00.350Z,15.19
2022-10-02T02:57:33.661Z,14.93
2022-10-02T03:00:01.540Z,15.14
2022-10-02T03:02:28.260Z,14.85
2022-10-02T03:04:54.772Z,14.64
2022-10-02T03:07:21.290Z,15.00
2022-10-02T03:10:01.710Z,15.17
2022-10-02T03:12:37.972Z,14.97
2022-10-02T03:15:28.429Z,15.71
2022-10-02T03:18:21.517Z,15.47
2022-10-02T03:21:07.521Z,15.49
2022-10-02T03:23:50.481Z,15.06
2022-10-02T03:26:22.778Z,15.27
2022-10-02T03:28:56.666Z,15.11
2022-10-02T03:31:25.546Z,15.30
2022-10-02T03:33:53.845Z,15.19
2022-10-02T03:36:21.117Z,15.60
2022-10-02T03:39:00.722Z,15.60
2022-10-02T03:41:33.074Z,15.47
2022-10-02T03:43:59.649Z,15.64
2022-10-02T03:46:26.477Z,15.50
2022-10-02T03:48:53.022Z,15.76
2022-10-02T03:51:19.522Z,15.71
2022-10-02T03:53:45.962Z,15.69
2022-10-02T03:56:33.421Z,15.85
2022-10-02T03:59:01.638Z,15.54
2022-10-02T04:01:33.600Z,15.79
2022-10-02T04:04:25.495Z,15.69
2022-10-02T04:06:56.951Z,15.79
2022-10-02T04:09:29.821Z,15.53
2022-10-02T04:12:12.122Z,15.91
2022-10-02T04:14:49.406Z,15.67
2022-10-02T04:17:20.638Z,15.75
2022-10-02T04:19:53.905Z,15.82
2022-10-02T04:22:35.859Z,15.45
2022-10-02T04:25:11.526Z,15.55
2022-10-02T04:27:42.730Z,15.43
2022-10-02T04:30:15.879Z,15.33
2022-10-02T04:32:42.357Z,15.15
2022-10-02T04:35:29.626Z,16.03
2022-10-02T04:38:02.561Z,15.66
2022-10-02T04:40:36.422Z,15.76
2022-10-02T04:43:24.822Z,15.81
2022-10-02T04:46:03.713Z,16.26
2022-10-02T04:48:39.954Z,15.78
2022-10-02T04:51:27.146Z,15.96
2022-10-02T04:54:00.937Z,16.09
2022-10-02T04:56:51.496Z,16.00
2022-10-02T04:59:39.656Z,15.97
2022-10-02T05:02:15.703Z,16.12
2022-10-02T05:05:30.599Z,15.97
2022-10-02T05:08:12.063Z,15.59
2022-10-02T05:11:00.789Z,16.12
2022-10-02T05:13:42.513Z,16.19
2022-10-02T05:16:21.108Z,16.25
2022-10-02T05:19:07.468Z,16.41
2022-10-02T05:21:47.223Z,15.76
2022-10-02T05:24:34.122Z,15.86
2022-10-02T05:27:09.773Z,15.87
2022-10-02T05:29:54.491Z,15.93
2022-10-02T05:33:04.783Z,16.05
2022-10-02T05:35:34.341Z,15.78
2022-10-02T05:38:26.780Z,15.67
2022-10-02T05:41:11.920Z,15.68
2022-10-02T05:43:49.540Z,15.31
2022-10-02T05:46:27.245Z,15.94
2022-10-02T05:49:22.465Z,15.65
2022-10-02T05:52:04.284Z,15.67
2022-10-02T05:54:33.687Z,15.89
2022-10-02T05:57:15.545Z,15.71
2022-10-02T06:00:16.042Z,16.22
2022-10-02T06:02:48.615Z,15.93
2022-10-02T06:05:17.954Z,15.78
2022-10-02T06:07:47.752Z,16.05
2022-10-02T06:10:28.156Z,15.82
2022-10-02T06:13:21.347Z,15.74
2022-10-02T06:16:10.524Z,15.80
2022-10-02T06:18:38.985Z,16.13
2022-10-02T06:21:11.126Z,16.46
2022-10-02T06:23:41.017Z,16.51
2022-10-02T06:26:12.560Z,16.05
2022-10-02T06:28:48.927Z,16.33
2022-10-02T06:31:22.527Z,16.95
2022-10-02T06:33:52.045Z,16.38
2022-10-02T06:36:43.531Z,16.38
2022-10-02T06:39:29.208Z,16.32
2022-10-02T06:42:20.087Z,16.26
2022-10-02T06:44:49.513Z,16.02
2022-10-02T06:47:35.343Z,16.43
2022-10-02T06:50:18.063Z,15.94
2022-10-02T06:53:12.101Z,16.51
2022-10-02T06:55:41.830Z,16.31
2022-10-02T06:58:38.901Z,16.34
2022-10-02T07:01:54.979Z,16.06
2022-10-02T07:05:04.974Z,16.74
2022-10-02T07:07:42.011Z,16.32
2022-10-02T07:11:04.289Z,16.49
2022-10-02T07:13:39.638Z,16.45
2022-10-02T07:16:12.325Z,16.49
2022-10-02T07:18:51.117Z,15.90
2022-10-02T07:21:27.221Z,15.74
2022-10-02T07:24:02.697Z,15.78
2022-10-02T07:26:48.067Z,16.16
2022-10-02T07:29:32.962Z,16.51
2022-10-02T07:32:21.828Z,16.69
2022-10-02T07:35:16.671Z,16.70
2022-10-02T07:37:50.860Z,16.46
2022-10-02T07:40:36.554Z,17.07
2022-10-02T07:43:18.584Z,17.02
2022-10-02T07:46:17.334Z,16.88
2022-10-02T07:49:06.789Z,16.62
2022-10-02T07:51:47.255Z,17.26
2022-10-02T07:54:35.595Z,16.99
2022-10-02T07:57:11.073Z,16.66
2022-10-02T07:59:40.035Z,17.09
2022-10-02T08:02:23.656Z,16.81
2022-10-02T08:04:50.293Z,17.53
2022-10-02T08:07:16.814Z,17.29
2022-10-02T08:09:49.378Z,17.31
2022-10-02T08:12:28.128Z,17.03
2022-10-02T08:14:55.842Z,17.15
2022-10-02T08:17:41.146Z,17.22
2022-10-02T08:20:15.609Z,17.16
2022-10-02T08:22:48.023Z,17.23
2022-10-02T08:25:31.032Z,18.05
2022-10-02T08:28:10.501Z,18.09
2022-10-02T08:30:37.532Z,18.28
2022-10-02T08:33:19.347Z,18.56
2022-10-02T08:36:05.015Z,18.32
2022-10-02T08:38:37.385Z,18.67
2022-10-02T08:42:04.031Z,19.16
2022-10-02T08:45:08.065Z,17.91
2022-10-02T08:47:43.454Z,18.20
2022-10-02T08:50:35.795Z,17.36
2022-10-02T08:53:08.831Z,18.12
2022-10-02T08:55:44.044Z,17.97
2022-10-02T08:58:19.597Z,18.95
2022-10-02T09:01:04.414Z,18.72
2022-10-02T09:03:55.998Z,19.24
2022-10-02T09:07:02.897Z,20.28
2022-10-02T09:09:41.131Z,20.00
2022-10-02T09:12:41.294Z,19.70
2022-10-02T09:15:15.627Z,20.52
2022-10-02T09:17:47.656Z,20.37
2022-10-02T09:20:41.487Z,19.61
2022-10-02T09:23:35.818Z,20.31
2022-10-02T09:26:08.372Z,20.86
2022-10-02T09:29:14.708Z,21.04
2022-10-02T09:32:05.636Z,20.70
2022-10-02T09:34:47.395Z,20.96
2022-10-02T09:37:38.239Z,20.84
2022-10-02T09:40:08.830Z,21.26
2022-10-02T09:42:37.940Z,21.80
2022-10-02T09:45:38.542Z,21.28
2022-10-02T09:48:30.702Z,21.94
2022-10-02T09:51:17.450Z,20.59
2022-10-02T09:53:58.421Z,20.25
2022-10-02T09:56:55.919Z,20.25
2022-10-02T09:59:40.736Z,20.43
2022-10-02T10:02:13.380Z,21.19
2022-10-02T10:05:12.990Z,19.65
2022-10-02T10:07:54.238Z,20.12
2022-10-02T10:10:26.577Z,19.87
2022-10-02T10:13:12.319Z,19.46
2022-10-02T10:15:57.491Z,19.42
2022-10-02T10:18:42.512Z,21.34
2022-10-02T10:21:50.239Z,22.93
2022-10-02T10:24:30.098Z,22.61
2022-10-02T10:26:57.301Z,24.56
2022-10-02T10:30:01.797Z,24.89
2022-10-02T10:32:43.567Z,23.79
2022-10-02T10:35:43.972Z,23.06
2022-10-02T10:38:51.248Z,22.53
2022-10-02T10:41:36.228Z,22.61
2022-10-02T10:44:44.905Z,23.95
2022-10-02T10:47:21.051Z,24.76
2022-10-02T10:50:09.185Z,24.61
2022-10-02T10:52:51.544Z,24.13
2022-10-02T10:55:22.488Z,27.08
2022-10-02T10:58:26.704Z,26.44
2022-10-02T11:01:14.168Z,29.30
2022-10-02T11:04:00.874Z,30.78
2022-10-02T11:06:45.948Z,30.35
2022-10-02T11:09:23.925Z,29.06
2022-10-02T11:12:19.648Z,30.39
2022-10-02T11:14:54.079Z,31.09
2022-10-02T11:17:39.798Z,29.40
2022-10-02T11:20:36.781Z,27.08
2022-10-02T11:23:25.056Z,24.39
2022-10-02T11:26:13.637Z,21.55
2022-10-02T11:29:01.095Z,20.94
2022-10-02T11:32:06.813Z,19.89
2022-10-02T11:34:45.851Z,21.59
2022-10-02T11:37:24.243Z,22.89
2022-10-02T11:39:53.683Z,24.04
2022-10-02T11:42:48.367Z,25.52
2022-10-02T11:45:55.612Z,29.55
2022-10-02T11:48:38.992Z,33.26
2022-10-02T11:51:13.423Z,31.22
2022-10-02T11:54:07.337Z,30.15
2022-10-02T11:56:53.526Z,28.24
2022-10-02T11:59:54.009Z,28.22
2022-10-02T12:02:30.032Z,28.32
2022-10-02T12:05:40.131Z,28.15
2022-10-02T12:08:24.199Z,28.15
2022-10-02T12:11:06.475Z,27.35
2022-10-02T12:13:41.452Z,26.11
2022-10-02T12:16:45.126Z,24.93
2022-10-02T12:19:24.447Z,23.10
2022-10-02T12:22:33.204Z,21.85
2022-10-02T12:25:21.665Z,21.62
2022-10-02T12:28:20.088Z,21.23
2022-10-02T12:31:44.497Z,20.94
2022-10-02T12:34:32.064Z,20.91
2022-10-02T12:37:32.278Z,21.25
2022-10-02T12:40:27.525Z,21.50
2022-10-02T12:43:07.969Z,22.22
2022-10-02T12:46:13.249Z,21.49
2022-10-02T12:48:51.086Z,21.56
2022-10-02T12:51:23.749Z,22.27
2022-10-02T12:54:15.197Z,22.39
2022-10-02T12:56:59.995Z,23.00
2022-10-02T12:59:35.548Z,22.67
2022-10-02T13:02:59.583Z,22.31
2022-10-02T13:05:52.374Z,21.86
2022-10-02T13:08:31.628Z,22.29
2022-10-02T13:11:35.374Z,22.30
2022-10-02T13:14:25.143Z,21.60
2022-10-02T13:17:00.577Z,20.85
2022-10-02T13:19:35.924Z,21.37
2022-10-02T13:22:41.004Z,21.64
2022-10-02T13:25:25.879Z,22.12
2022-10-02T13:27:59.695Z,22.53
2022-10-02T13:30:28.387Z,22.34
2022-10-02T13:33:08.410Z,20.66
2022-10-02T13:35:54.033Z,21.67
2022-10-02T13:38:45.772Z,20.69
2022-10-02T13:41:33.671Z,20.51
2022-10-02T13:44:20.117Z,20.00
2022-10-02T13:47:06.098Z,20.23
2022-10-02T13:49:54.142Z,20.54
2022-10-02T13:52:41.557Z,19.66
2022-10-02T13:55:20.138Z,20.48
2022-10-02T13:58:23.727Z,20.18
2022-10-02T14:01:09.320Z,19.60
2022-10-02T14:03:55.557Z,19.90
2022-10-02T14:06:27.128Z,19.81
2022-10-02T14:09:18.577Z,20.10
2022-10-02T14:12:12.323Z,19.99
2022-10-02T14:15:02.094Z,19.81
2022-10-02T14:17:53.733Z,19.95
2022-10-02T14:20:32.456Z,19.54
2022-10-02T14:23:40.955Z,20.46
2022-10-02T14:26:35.034Z,19.92
2022-10-02T14:29:22.812Z,19.81
2022-10-02T14:32:14.973Z,20.05
2022-10-02T14:34:55.578Z,19.94
2022-10-02T14:37:43.702Z,20.69
2022-10-02T14:40:13.800Z,20.79
2022-10-02T14:42:46.453Z,20.71
2022-10-02T14:45:28.140Z,19.66
2022-10-02T14:48:28.644Z,19.69
2022-10-02T14:51:03.209Z,20.21
2022-10-02T14:53:48.385Z,19.94
2022-10-02T14:56:24.308Z,20.24
2022-10-02T14:59:17.367Z,19.98
2022-10-02T15:01:46.964Z,20.10
2022-10-02T15:04:35.163Z,19.46
2022-10-02T15:07:09.639Z,19.22
2022-10-02T15:09:58.367Z,19.41
2022-10-02T15:12:30.070Z,18.86
2022-10-02T15:15:05.319Z,19.12
2022-10-02T15:17:56.725Z,18.88
2022-10-02T15:20:33.328Z,19.09
2022-10-02T15:23:07.316Z,19.55
2022-10-02T15:25:45.957Z,19.11
2022-10-02T15:28:37.324Z,19.15
2022-10-02T15:31:28.460Z,19.74
2022-10-02T15:33:58.013Z,19.59
2022-10-02T15:36:36.367Z,19.96
2022-10-02T15:39:24.665Z,19.94
2022-10-02T15:42:05.874Z,20.05
2022-10-02T15:45:10.182Z,20.03
2022-10-02T15:47:45.626Z,20.09
2022-10-02T15:50:27.349Z,19.93
2022-10-02T15:53:00.141Z,19.68
2022-10-02T15:55:37.763Z,19.96
2022-10-02T15:58:35.245Z,20.46
2022-10-02T16:01:14.487Z,20.90
2022-10-02T16:03:51.127Z,21.23
2022-10-02T16:06:30.145Z,19.84
2022-10-02T16:09:03.712Z,20.71
2022-10-02T16:11:42.628Z,20.93
2022-10-02T16:14:09.167Z,21.11
2022-10-02T16:16:41.405Z,20.30
2022-10-02T16:19:27.325Z,20.27
2022-10-02T16:22:03.671Z,19.67
2022-10-02T16:25:01.226Z,19.74
2022-10-02T16:27:32.728Z,19.73
2022-10-02T16:30:22.560Z,19.37
2022-10-02T16:33:01.483Z,19.50
2022-10-02T16:35:43.786Z,19.77
2022-10-02T16:38:15.155Z,19.79
2022-10-02T16:41:14.416Z,19.66
2022-10-02T16:43:49.972Z,19.72
2022-10-02T16:46:21.177Z,19.33
2022-10-02T16:48:53.745Z,19.37
2022-10-02T16:51:51.283Z,19.00
2022-10-02T16:54:20.795Z,18.84
2022-10-02T16:56:54.186Z,19.14
2022-10-02T16:59:31.638Z,18.51
2022-10-02T17:02:19.531Z,18.17
2022-10-02T17:04:52.747Z,18.39
2022-10-02T17:07:34.235Z,18.45
2022-10-02T17:10:18.110Z,18.48
2022-10-02T17:13:09.731Z,17.99
2022-10-02T17:15:46.833Z,17.87
2022-10-02T17:18:47.562Z,17.80
2022-10-02T17:21:22.116Z,17.88
2022-10-02T17:24:13.498Z,17.89
2022-10-02T17:26:43.705Z,18.33
2022-10-02T17:29:19.340Z,18.19
2022-10-02T17:31:58.931Z,17.87
2022-10-02T17:34:26.499Z,18.10
2022-10-02T17:37:14.386Z,18.11
2022-10-02T17:39:53.154Z,17.57
2022-10-02T17:42:50.105Z,18.14
2022-10-02T17:45:43.261Z,17.87
2022-10-02T17:48:28.175Z,17.70
2022-10-02T17:50:54.939Z,17.57
2022-10-02T17:54:11.286Z,17.42
2022-10-02T17:56:44.170Z,17.35
2022-10-02T17:59:38.800Z,17.34
2022-10-02T18:02:10.922Z,17.14
2022-10-02T18:04:59.199Z,17.51
2022-10-02T18:07:51.981Z,17.21
2022-10-02T18:10:24.894Z,16.88
2022-10-02T18:13:10.156Z,16.78
2022-10-02T18:15:46.175Z,17.27
2022-10-02T18:18:23.073Z,17.27
2022-10-02T18:20:57.336Z,17.34
2022-10-02T18:23:51.855Z,17.40
2022-10-02T18:26:21.996Z,17.29
2022-10-02T18:29:24.070Z,17.14
2022-10-02T18:32:02.151Z,17.48
2022-10-02T18:34:44.130Z,17.45
2022-10-02T18:37:26.455Z,17.65
2022-10-02T18:40:11.086Z,17.60
2022-10-02T18:42:53.319Z,17.53
2022-10-02T18:45:35.218Z,17.42
2022-10-02T18:48:23.062Z,17.12
2022-10-02T18:51:06.492Z,17.05
2022-10-02T18:54:02.625Z,16.42
2022-10-02T18:56:51.365Z,16.61
2022-10-02T18:59:27.005Z,16.57
2022-10-02T19:02:05.511Z,16.63
2022-10-02T19:04:54.646Z,16.51
2022-10-02T19:07:42.617Z,16.44
2022-10-02T19:10:32.040Z,16.60
2022-10-02T19:13:18.048Z,16.35
2022-10-02T19:15:47.027Z,16.20
2022-10-02T19:18:25.401Z,16.36
2022-10-02T19:21:02.836Z,15.96
2022-10-02T19:23:33.710Z,15.74
2022-10-02T19:26:07.855Z,15.82
2022-10-02T19:28:49.678Z,16.21
2022-10-02T19:31:26.926Z,16.02
2022-10-02T19:33:56.520Z,15.78
2022-10-02T19:36:26.355Z,16.16
2022-10-02T19:39:02.633Z,16.01
2022-10-02T19:41:36.338Z,16.17
2022-10-02T19:44:20.775Z,16.26
2022-10-02T19:46:49.006Z,16.03
2022-10-02T19:49:30.851Z,16.26
2022-10-02T19:51:57.767Z,16.28
2022-10-02T19:54:37.507Z,16.17
2022-10-02T19:57:14.827Z,16.23
2022-10-02T19:59:45.296Z,15.94
2022-10-02T20:02:25.162Z,15.63
2022-10-02T20:04:57.260Z,15.55
2022-10-02T20:07:26.691Z,15.78
2022-10-02T20:09:56.297Z,15.81
2022-10-02T20:12:30.578Z,15.21
2022-10-02T20:15:41.197Z,14.98
2022-10-02T20:18:08.326Z,14.97
2022-10-02T20:20:36.290Z,15.17
2022-10-02T20:23:05.797Z,15.14
2022-10-02T20:25:48.265Z,14.98
2022-10-02T20:28:24.040Z,15.45
2022-10-02T20:30:54.163Z,15.47
2022-10-02T20:33:24.809Z,15.40
2022-10-02T20:36:14.192Z,15.11
2022-10-02T20:38:46.838Z,15.25
2022-10-02T20:41:45.185Z,15.55
2022-10-02T20:44:12.740Z,15.53
2022-10-02T20:46:57.905Z,14.98
2022-10-02T20:49:27.368Z,15.08
2022-10-02T20:52:04.156Z,15.06
2022-10-02T20:54:58.847Z,15.18
2022-10-02T20:58:00.543Z,15.19
2022-10-02T21:00:29.640Z,14.75
2022-10-02T21:03:34.263Z,14.48
2022-10-02T21:06:03.907Z,14.49
2022-10-02T21:09:01.430Z,14.69
2022-10-02T21:12:00.849Z,14.51
2022-10-02T21:14:57.160Z,14.33
2022-10-02T21:17:51.220Z,14.52
2022-10-02T21:20:33.170Z,14.83
2022-10-02T21:23:25.123Z,14.06
2022-10-02T21:26:19.105Z,14.43
2022-10-02T21:28:50.241Z,14.26
2022-10-02T21:31:34.789Z,14.19
2022-10-02T21:34:41.066Z,14.24
2022-10-02T21:37:17.989Z,14.55
2022-10-02T21:40:10.011Z,14.83
2022-10-02T21:42:45.854Z,14.65
2022-10-02T21:45:41.202Z,14.69
2022-10-02T21:48:26.561Z,14.76
2022-10-02T21:51:31.641Z,14.87
2022-10-02T21:54:19.943Z,14.79
2022-10-02T21:57:11.545Z,14.83
2022-10-02T22:00:16.115Z,14.67
2022-10-02T22:03:20.096Z,14.72
2022-10-02T22:06:08.786Z,14.72
2022-10-02T22:08:42.623Z,14.81
2022-10-02T22:11:23.970Z,14.65
2022-10-02T22:13:54.824Z,14.45
2022-10-02T22:16:42.982Z,14.62
2022-10-02T22:19:36.614Z,14.73
2022-10-02T22:22:25.166Z,14.72
2022-10-02T22:25:44.638Z,14.71
2022-10-02T22:28:18.401Z,14.36
2022-10-02T22:30:45.050Z,14.79
2022-10-02T22:33:29.884Z,14.36
2022-10-02T22:36:02.719Z,14.66
2022-10-02T22:38:35.502Z,14.67
2022-10-02T22:41:02.565Z,14.50
2022-10-02T22:43:49.516Z,14.38
2022-10-02T22:46:26.783Z,14.24
2022-10-02T22:48:56.022Z,14.57
2022-10-02T22:51:29.766Z,14.84
2022-10-02T22:54:33.931Z,14.94
2022-10-02T22:57:03.758Z,14.83
2022-10-02T22:59:37.131Z,14.69
2022-10-02T23:02:30.187Z,14.79
2022-10-02T23:05:14.231Z,14.71
2022-10-02T23:07:50.634Z,14.76
2022-10-02T23:10:32.230Z,14.82
2022-10-02T23:13:12.577Z,14.76
2022-10-02T23:15:58.773Z,14.54
2022-10-02T23:18:50.322Z,14.82
2022-10-02T23:21:35.551Z,14.85
2022-10-02T23:24:23.347Z,14.49
2022-10-02T23:26:49.813Z,14.64
2022-10-02T23:29:19.094Z,14.74
2022-10-02T23:31:54.681Z,14.58
2022-10-02T23:34:37.574Z,13.91
2022-10-02T23:37:16.024Z,13.39
2022-10-02T23:40:04.205Z,13.75
2022-10-02T23:42:40.043Z,13.80
2022-10-02T23:45:16.059Z,14.17
2022-10-02T23:48:03.666Z,14.44
2022-10-02T23:51:04.573Z,14.60
2022-10-02T23:53:37.352Z,14.19
2022-10-02T23:56:49.085Z,14.16
2022-10-02T23:59:18.304Z,14.64
